Latest Coastal Weather Observations for Port Hedland

IDW60701

Issued at 11:43 am WST Sunday 26 February 2017 (issued every 10 minutes, with the page automatically refreshed every 10 minutes)

About coastal observations | Map of coastal stations | Coastal observations for WA | Marine services | Other Formats
Station Details ID: 004032 Name: PORT HEDLAND AIRPORT Lat: -20.37 Lon: 118.63 Height: 6.4 m
Data from the previous 72 hours. | See also: Recent months at Port Hedland
Date/Time
WST
Temp
°C
Wind Pressure Rain since
9am
mm
Weather Cloud Vis
km
Sea
Height
m
Swell
Dir  Spd
kts
Gust
kts
hPa Trend Height
m
Period
s
Dir
26/11:30am 34.7 NNE 13 16 1008.5 - 0.0 - - - - - - -
26/11:00am 35.1 NE 12 16 1008.5 - 0.0 - - - - - - -
26/10:30am 35.0 NE 12 15 1009.0 - 0.0 - - - - - - -
26/10:00am 33.6 NE 14 18 1009.2 - 0.0 - - - - - - -
26/09:30am 33.6 ENE 12 17 1009.3 - 0.0 - - - - - - -
26/09:00am 33.1 ENE 14 19 1009.1 - 0.0 - - - - - - -
26/08:30am 32.6 ENE 15 18 1009.0 - 0.0 - - - - - - -
26/08:00am 31.9 ENE 15 19 1008.9 - 0.0 - - - - - - -
26/07:30am 30.9 E 14 17 1008.9 - 0.0 - - - - - - -
26/07:00am 29.4 E 13 16 1008.7 - 0.0 - - - - - - -
26/06:30am 28.1 E 9 12 1008.4 - 0.0 - - - - - - -
26/06:00am 27.6 E 8 10 1008.1 - 0.0 - - - - - - -
26/05:30am 28.2 SSE 7 8 1007.7 - 0.0 - - - - - - -
26/05:00am 28.4 SSE 6 8 1007.4 - 0.0 - - - - - - -
26/04:30am 28.7 S 6 7 1007.2 - 0.0 - - - - - - -
26/04:00am 28.5 SSW 6 6 1007.0 - 0.0 - - - - - - -
26/03:30am 28.1 SSW 4 5 1007.2 - 0.0 - - - - - - -
26/03:00am 28.9 SSW 4 5 1007.2 - 0.0 - - - - - - -
26/02:30am 29.2 SSW 5 6 1007.5 - 0.0 - - - - - - -
26/02:00am 29.7 SSW 8 11 1007.7 - 0.0 - - - - - - -
26/01:30am 29.3 SW 9 11 1007.8 - 0.0 - - - - - - -
26/01:00am 28.9 SSW 6 7 1008.1 - 0.0 - - - - - - -
26/12:30am 28.7 SSW 6 8 1008.5 - 0.0 - - - - - - -
26/12:00am 29.1 SSW 5 7 1008.8 - 0.0 - - - - - - -
 
Date/Time
WST
Temp
°C
Wind Pressure Rain since
9am
mm
Weather Cloud Vis
km
Sea
Height
m
Swell
Dir  Spd
kts
Gust
kts
hPa Trend Height
m
Period
s
Dir
25/11:30pm 29.5 S 5 7 1009.0 - 0.0 - - - - - - -
25/11:00pm 29.8 S 5 6 1009.2 - 0.0 - - - - - - -
25/10:30pm 29.6 WSW 3 5 1009.1 - 0.0 - - - - - - -
25/10:00pm 30.1 CALM 0 0 1009.1 - 0.0 - - - - - - -
25/09:30pm 30.4 NNW 1 4 1008.9 - 0.0 - - - - - - -
25/09:00pm 30.4 NNW 4 4 1008.7 - 0.0 - - - - - - -
25/08:30pm 30.7 NNW 4 7 1008.9 - 0.0 - - - - - - -
25/08:00pm 30.9 NW 6 7 1008.3 - 0.0 - - - - - - -
25/07:30pm 31.4 NW 5 7 1008.1 - 0.0 - - - - - - -
25/07:00pm 32.1 NNW 7 8 1007.7 - 0.0 - - - - - - -
25/06:30pm 32.9 NNW 8 10 1007.4 - 0.0 - - - - - - -
25/06:00pm 34.1 N 11 13 1007.0 - 0.0 - - - - - - -
25/05:30pm 34.5 N 12 16 1007.0 - 0.0 - - - - - - -
25/05:00pm 35.7 N 12 16 1006.9 - 0.0 - - - - - - -
25/04:30pm 35.9 N 14 16 1007.0 - 0.0 - - - - - - -
25/04:00pm 36.4 N 13 17 1007.1 - 0.0 - - - - - - -
25/03:30pm 37.2 N 15 20 1007.4 - 0.0 - - - - - - -
25/03:00pm 37.3 N 15 18 1007.5 - 0.0 - - - - - - -
25/02:30pm 37.6 NNE 17 22 1008.0 - 0.0 - - - - - - -
25/02:00pm 37.6 NNE 18 22 1008.5 - 0.0 - - - - - - -
25/01:30pm 38.6 NNE 15 21 1008.8 - 0.0 - - - - - - -
25/01:00pm 41.7 ENE 15 21 1008.9 - 0.0 - - - - - - -
25/12:30pm 41.1 E 16 22 1009.3 - 0.0 - - - - - - -
25/12:02pm 41.3 E 16 26 1009.6 - 0.0 - - - - - - -
25/12:00pm 41.0 E 18 26 1009.5 - 0.0 - - - - - - -
25/11:30am 40.7 ENE 15 20 1009.9 - 0.0 - - - - - - -
25/11:00am 40.1 E 14 19 1010.1 - 0.0 - - - - - - -
25/10:30am 39.0 E 14 20 1010.4 - 0.0 - - - - - - -
25/10:00am 39.0 E 16 20 1010.6 - 0.0 - - - - - - -
25/09:30am 37.1 ESE 17 22 1010.7 - 0.0 - - - - - - -
25/09:00am 36.5 ESE 16 21 1010.6 - 0.0 - - - - - - -
25/08:30am 34.7 ESE 12 16 1010.6 - 0.0 - - - - - - -
25/08:00am 32.0 SE 8 11 1010.4 - 0.0 - - - - - - -
25/07:30am 30.7 ESE 8 11 1010.1 - 0.0 - - - - - - -
25/07:00am 29.5 ESE 6 8 1010.1 - 0.0 - - - - - - -
25/06:30am 27.3 ESE 7 8 1010.0 - 0.0 - - - - - - -
25/06:00am 26.5 SE 4 5 1009.6 - 0.0 - - - - - - -
25/05:30am 26.7 SE 5 11 1009.3 - 0.0 - - - - - - -
25/05:00am 25.9 CALM 0 2 1008.8 - 0.0 - - - - - - -
25/04:30am 26.0 E 6 7 1008.9 - 0.0 - - - - - - -
25/04:00am 26.3 E 6 8 1008.7 - 0.0 - - - - - - -
25/03:30am 26.6 E 6 8 1008.8 - 0.0 - - - - - - -
25/03:00am 27.0 E 4 5 1008.6 - 0.0 - - - - - - -
25/02:30am 27.7 CALM 0 0 1008.9 - 0.0 - - - - - - -
25/02:00am 28.1 SW 6 7 1008.8 - 0.0 - - - - - - -
25/01:30am 28.4 W 6 7 1008.9 - 0.0 - - - - - - -
25/01:00am 29.3 WSW 7 9 1009.0 - 0.0 - - - - - - -
25/12:30am 29.9 W 7 8 1009.4 - 0.0 - - - - - - -
25/12:00am 30.4 WSW 8 9 1009.5 - 0.0 - - - - - - -
 
Date/Time
WST
Temp
°C
Wind Pressure Rain since
9am
mm
Weather Cloud Vis
km
Sea
Height
m
Swell
Dir  Spd
kts
Gust
kts
hPa Trend Height
m
Period
s
Dir
24/11:30pm 31.6 W 8 11 1009.9 - 0.0 - - - - - - -
24/11:00pm 31.6 W 9 11 1010.2 - 0.0 - - - - - - -
24/10:30pm 31.6 W 10 12 1010.4 - 0.0 - - - - - - -
24/10:00pm 31.3 WNW 7 8 1010.6 - 0.0 - - - - - - -
24/09:30pm 31.4 NNW 7 9 1010.8 - 0.0 - - - - - - -
24/09:00pm 31.5 NNW 6 7 1010.9 - 0.0 - - - - - - -
24/08:30pm 31.6 NW 6 7 1010.5 - 0.0 - - - - - - -
24/08:00pm 31.5 NW 7 8 1010.2 - 0.0 - - - - - - -
24/07:30pm 32.3 WNW 8 10 1010.0 - 0.0 - - - - - - -
24/07:00pm 32.7 WNW 10 11 1009.5 - 0.0 - - - - - - -
24/06:30pm 33.6 NW 8 10 1009.0 - 0.0 - - - - - - -
24/06:00pm 35.0 WNW 10 12 1008.4 - 0.0 - - - - - - -
24/05:30pm 35.5 NW 11 13 1008.3 - 0.0 - - - - - - -
24/05:00pm 36.2 NW 12 15 1008.2 - 0.0 - - - - - - -
24/04:30pm 37.3 NNW 11 14 1008.1 - 0.0 - - - - - - -
24/04:00pm 38.0 NNW 10 15 1008.0 - 0.0 - - - - - - -
24/03:30pm 40.6 E 10 15 1008.2 - 0.0 - - - - - - -
24/03:00pm 41.6 E 9 18 1008.1 - 0.0 - - 10 - - - -
24/02:30pm 42.1 E 11 16 1008.5 - 0.0 - - 10 - - - -
24/02:00pm 41.3 SE 8 14 1008.9 - 0.0 - - 10 - - - -
24/01:30pm 40.8 E 9 14 1009.4 - 0.0 - - 10 - - - -
24/01:00pm 40.5 ENE 9 12 1009.9 - 0.0 - - 10 - - - -
24/12:30pm 40.2 E 10 14 1010.4 - 0.0 - - 10 - - - -
24/12:00pm 39.5 E 10 16 1010.8 - 0.0 - - 10 - - - -
24/11:30am 38.7 E 9 13 1011.2 - 0.0 - - 10 - - - -
24/11:00am 37.7 SE 9 14 1011.7 - 0.0 - - 10 - - - -
24/10:30am 37.2 SE 11 17 1012.1 - 0.0 - - 10 - - - -
24/10:00am 36.8 SE 11 16 1012.3 - 0.0 - - 10 - - - -
24/09:30am 35.3 SSE 11 16 1012.5 - 0.0 - - 10 - - - -
24/09:00am 34.4 SE 11 16 1012.7 F 0.0 Fine Mostly clear 30 - - - -
24/08:30am 33.9 SE 11 15 1012.8 - 0.0 - - 10 - - - -
24/08:00am 31.4 SE 7 9 1012.8 - 0.0 - Mostly clear 10 - - - -
24/07:30am 29.9 SE 6 9 1012.7 - 0.0 - - 10 - - - -
24/07:00am 27.6 E 5 7 1012.7 - 0.0 - - 10 - - - -
24/06:30am 26.0 E 6 7 1012.6 - 0.0 - - 10 - - - -
24/06:00am 25.9 E 6 7 1012.2 - 0.0 - Mostly clear 10 - - - -
24/05:30am 26.3 SE 4 5 1012.0 - 0.0 - - - - - - -
24/05:00am 26.2 SE 1 4 1011.7 - 0.0 - - - - - - -
24/04:30am 27.0 S 6 7 1011.3 - 0.0 - - - - - - -
24/04:00am 26.6 SSW 6 7 1011.2 - 0.0 - - - - - - -
24/03:30am 26.4 SSW 4 5 1011.1 - 0.0 - - - - - - -
24/03:00am 26.1 SW 4 5 1010.9 - 0.0 - - - - - - -
24/02:30am 27.0 S 5 7 1011.1 - 0.0 - - - - - - -
24/02:00am 27.9 S 5 7 1011.1 - 0.0 - - - - - - -
24/01:30am 28.0 S 6 8 1011.5 - 0.0 - - - - - - -
24/01:00am 28.3 S 6 8 1011.8 - 0.0 - - - - - - -
24/12:30am 28.8 SSW 8 10 1011.8 - 0.0 - - - - - - -
24/12:00am 28.6 SSW 9 11 1011.8 - 0.0 - - - - - - -
 
Date/Time
WST
Temp
°C
Wind Pressure Rain since
9am
mm
Weather Cloud Vis
km
Sea
Height
m
Swell
Dir  Spd
kts
Gust
kts
hPa Trend Height
m
Period
s
Dir
23/11:30pm 28.9 SW 9 11 1012.4 - 0.0 - - - - - - -
23/11:00pm 29.1 WSW 7 8 1012.5 - 0.0 - - - - - - -
23/10:30pm 29.9 SW 9 11 1012.6 - 0.0 - - - - - - -
23/10:00pm 30.5 SSW 11 14 1012.5 - 0.0 - - - - - - -
23/09:30pm 31.2 SW 12 17 1012.4 - 0.0 - - - - - - -
23/09:00pm 31.3 WSW 10 13 1012.1 - 0.0 - - - - - - -
23/08:30pm 31.3 WSW 9 11 1011.9 - 0.0 - - - - - - -
23/08:00pm 31.9 WSW 11 13 1011.6 - 0.0 - - - - - - -
23/07:30pm 32.3 W 10 14 1011.3 - 0.0 - - - - - - -
23/07:00pm 32.6 W 12 16 1010.9 - 0.0 - - - - - - -
23/06:30pm 33.0 WNW 9 11 1010.4 - 0.0 - - - - - - -
23/06:00pm 34.4 NW 8 10 1010.0 - 0.0 - - - - - - -
23/05:30pm 36.3 NNW 6 9 1009.8 - 0.0 - - - - - - -
23/05:00pm 38.8 E 6 9 1009.4 - 0.0 - - - - - - -
23/04:30pm 39.0 ESE 7 13 1009.2 - 0.0 - - - - - - -
23/04:00pm 39.2 E 7 14 1009.1 - 0.0 - - - - - - -
23/03:30pm 38.7 E 10 17 1009.2 - 0.0 - - - - - - -
23/03:00pm 38.7 E 10 16 1009.3 F 0.0 - - 10 - - - -
23/02:30pm 38.7 E 12 16 1009.9 - 0.0 - - 10 - - - -
23/02:00pm 38.3 ESE 11 16 1010.0 - 0.0 - - 10 - - - -
23/01:30pm 38.0 E 10 16 1010.5 - 0.0 - - 10 - - - -
23/01:00pm 37.3 E 9 16 1010.9 - 0.0 - - 10 - - - -
23/12:30pm 37.3 ENE 13 16 1011.3 - 0.0 - - 10 - - - -
23/12:00pm 36.8 ESE 10 16 1011.6 - 0.0 - - 10 - - - -

Other Formats:

Comma delimited format used in spreadsheet applications
http://www.bom.gov.au/fwo/IDW60701/IDW60701.94312.axf

JavaScript Object Notation format (JSON) in row-major order
http://www.bom.gov.au/fwo/IDW60701/IDW60701.94312.json